createdAt,value
2023-02-18T00:00:06.594Z,99.90
2023-02-18T00:02:33.829Z,99.90
2023-02-18T00:05:00.481Z,99.90
2023-02-18T00:07:27.249Z,99.90
2023-02-18T00:09:53.863Z,99.90
2023-02-18T00:12:20.469Z,99.90
2023-02-18T00:14:47.096Z,99.90
2023-02-18T00:17:13.708Z,99.90
2023-02-18T00:19:40.312Z,99.90
2023-02-18T00:22:06.904Z,99.90
2023-02-18T00:24:33.544Z,99.90
2023-02-18T00:27:00.221Z,99.90
2023-02-18T00:29:26.879Z,99.90
2023-02-18T00:31:53.553Z,99.90
2023-02-18T00:34:20.214Z,99.90
2023-02-18T00:36:46.862Z,99.90
2023-02-18T00:39:13.499Z,99.90
2023-02-18T00:41:40.143Z,99.90
2023-02-18T00:44:07.387Z,99.90
2023-02-18T00:46:34.386Z,99.90
2023-02-18T00:49:01.044Z,99.90
2023-02-18T00:51:27.688Z,99.90
2023-02-18T00:53:54.332Z,99.90
2023-02-18T00:56:21.070Z,99.90
2023-02-18T00:58:48.081Z,99.90
2023-02-18T01:01:14.809Z,99.90
2023-02-18T01:03:42.482Z,99.90
2023-02-18T01:06:09.736Z,99.90
2023-02-18T01:08:37.010Z,99.90
2023-02-18T01:11:04.348Z,99.90
2023-02-18T01:13:31.489Z,99.90
2023-02-18T01:15:58.302Z,99.90
2023-02-18T01:18:25.649Z,99.90
2023-02-18T01:20:52.356Z,99.90
2023-02-18T01:23:19.386Z,99.90
2023-02-18T01:25:46.184Z,99.90
2023-02-18T01:28:14.069Z,99.90
2023-02-18T01:30:41.020Z,99.90
2023-02-18T01:33:07.632Z,99.90
2023-02-18T01:35:37.457Z,99.90
2023-02-18T01:38:04.104Z,99.90
2023-02-18T01:40:30.806Z,99.90
2023-02-18T01:42:57.496Z,99.90
2023-02-18T01:45:33.410Z,99.90
2023-02-18T01:48:02.215Z,99.90
2023-02-18T01:50:28.871Z,99.90
2023-02-18T01:52:55.531Z,99.90
2023-02-18T01:55:22.218Z,99.90
2023-02-18T01:57:49.093Z,99.90
2023-02-18T02:00:18.033Z,99.90
2023-02-18T02:02:46.053Z,99.90
2023-02-18T02:05:13.105Z,99.90
2023-02-18T02:07:41.210Z,99.90
2023-02-18T02:10:08.960Z,99.90
2023-02-18T02:12:44.725Z,99.90
2023-02-18T02:15:11.309Z,99.90
2023-02-18T02:17:41.025Z,99.90
2023-02-18T02:20:26.482Z,99.90
2023-02-18T02:22:56.088Z,99.90
2023-02-18T02:25:28.692Z,99.90
2023-02-18T02:27:55.329Z,99.90
2023-02-18T02:30:21.944Z,99.90
2023-02-18T02:33:03.247Z,99.90
2023-02-18T02:35:39.043Z,99.90
2023-02-18T02:38:25.896Z,99.90
2023-02-18T02:40:57.315Z,99.90
2023-02-18T02:43:39.217Z,99.90
2023-02-18T02:46:09.406Z,99.90
2023-02-18T02:48:40.249Z,99.90
2023-02-18T02:51:06.839Z,99.90
2023-02-18T02:53:34.237Z,99.90
2023-02-18T02:56:00.929Z,99.90
2023-02-18T02:58:27.639Z,99.90
2023-02-18T03:01:00.459Z,99.90
2023-02-18T03:03:27.070Z,99.90
2023-02-18T03:05:53.665Z,99.90
2023-02-18T03:08:38.688Z,99.90
2023-02-18T03:11:13.234Z,99.90
2023-02-18T03:13:42.829Z,99.90
2023-02-18T03:16:09.721Z,99.90
2023-02-18T03:18:48.246Z,99.90
2023-02-18T03:21:27.219Z,99.90
2023-02-18T03:23:57.237Z,99.90
2023-02-18T03:26:25.007Z,99.90
2023-02-18T03:28:52.922Z,99.90
2023-02-18T03:31:21.477Z,99.90
2023-02-18T03:33:51.133Z,99.90
2023-02-18T03:36:19.860Z,99.90
2023-02-18T03:38:59.099Z,99.90
2023-02-18T03:41:25.709Z,99.90
2023-02-18T03:44:00.484Z,99.90
2023-02-18T03:46:27.604Z,99.90
2023-02-18T03:48:54.353Z,99.90
2023-02-18T03:51:21.754Z,99.90
2023-02-18T03:53:48.366Z,99.90
2023-02-18T03:56:14.975Z,99.90
2023-02-18T03:58:41.575Z,99.90
2023-02-18T04:01:08.217Z,99.90
2023-02-18T04:03:34.812Z,99.90
2023-02-18T04:06:01.449Z,99.90
2023-02-18T04:08:28.083Z,99.90
2023-02-18T04:10:54.697Z,99.90
2023-02-18T04:13:21.323Z,99.90
2023-02-18T04:15:51.444Z,99.90
2023-02-18T04:18:18.537Z,99.90
2023-02-18T04:20:46.356Z,99.90
2023-02-18T04:23:13.130Z,99.90
2023-02-18T04:25:40.127Z,99.90
2023-02-18T04:28:06.906Z,99.90
2023-02-18T04:30:33.856Z,99.90
2023-02-18T04:33:00.506Z,99.90
2023-02-18T04:35:27.148Z,99.90
2023-02-18T04:37:53.744Z,99.90
2023-02-18T04:40:20.454Z,99.90
2023-02-18T04:42:47.055Z,99.90
2023-02-18T04:45:13.649Z,99.90
2023-02-18T04:47:40.337Z,99.90
2023-02-18T04:50:07.291Z,99.90
2023-02-18T04:52:34.032Z,99.90
2023-02-18T04:55:00.618Z,99.90
2023-02-18T04:57:27.208Z,99.90
2023-02-18T04:59:53.782Z,99.90
2023-02-18T05:02:20.694Z,99.90
2023-02-18T05:04:47.266Z,99.90
2023-02-18T05:07:13.892Z,99.90
2023-02-18T05:09:40.596Z,99.90
2023-02-18T05:12:07.332Z,99.90
2023-02-18T05:14:33.977Z,99.90
2023-02-18T05:17:00.559Z,99.90
2023-02-18T05:19:27.189Z,99.90
2023-02-18T05:21:53.777Z,99.90
2023-02-18T05:24:20.405Z,99.90
2023-02-18T05:26:47.026Z,99.90
2023-02-18T05:29:13.611Z,99.90
2023-02-18T05:31:40.405Z,99.90
2023-02-18T05:34:07.108Z,99.90
2023-02-18T05:36:33.770Z,99.90
2023-02-18T05:39:00.375Z,99.90
2023-02-18T05:41:27.010Z,99.90
2023-02-18T05:44:12.269Z,99.90
2023-02-18T05:46:38.903Z,99.90
2023-02-18T05:49:05.618Z,99.90
2023-02-18T05:51:32.400Z,99.90
2023-02-18T05:53:59.031Z,99.90
2023-02-18T05:56:25.676Z,99.90
2023-02-18T05:58:52.333Z,99.90
2023-02-18T06:01:18.953Z,99.90
2023-02-18T06:03:45.603Z,99.90
2023-02-18T06:06:12.455Z,99.90
2023-02-18T06:08:39.309Z,99.90
2023-02-18T06:11:05.926Z,99.90
2023-02-18T06:13:32.548Z,99.90
2023-02-18T06:15:59.269Z,99.90
2023-02-18T06:18:25.940Z,99.90
2023-02-18T06:20:52.548Z,99.90
2023-02-18T06:23:19.145Z,99.90
2023-02-18T06:25:48.205Z,99.90
2023-02-18T06:28:14.846Z,99.90
2023-02-18T06:30:41.459Z,99.90
2023-02-18T06:33:08.079Z,99.90
2023-02-18T06:35:35.474Z,99.90
2023-02-18T06:38:02.234Z,99.90
2023-02-18T06:40:28.862Z,99.90
2023-02-18T06:42:55.492Z,99.90
2023-02-18T06:45:22.192Z,99.90
2023-02-18T06:47:48.991Z,99.90
2023-02-18T06:50:15.658Z,99.90
2023-02-18T06:52:42.430Z,99.90
2023-02-18T06:55:12.120Z,99.90
2023-02-18T06:57:38.747Z,99.90
2023-02-18T07:00:05.742Z,99.90
2023-02-18T07:02:32.353Z,99.90
2023-02-18T07:04:58.974Z,99.90
2023-02-18T07:07:25.641Z,99.90
2023-02-18T07:09:52.232Z,99.90
2023-02-18T07:12:18.872Z,99.90
2023-02-18T07:14:46.027Z,99.90
2023-02-18T07:17:12.695Z,99.90
2023-02-18T07:19:39.336Z,99.90
2023-02-18T07:22:06.196Z,99.90
2023-02-18T07:24:32.821Z,99.90
2023-02-18T07:26:59.412Z,99.90
2023-02-18T07:29:26.061Z,99.90
2023-02-18T07:31:52.807Z,99.90
2023-02-18T07:34:19.658Z,99.90
2023-02-18T07:36:46.361Z,99.90
2023-02-18T07:39:12.975Z,99.90
2023-02-18T07:41:39.890Z,99.90
2023-02-18T07:44:06.512Z,99.90
2023-02-18T07:46:33.117Z,99.90
2023-02-18T07:48:59.720Z,99.90
2023-02-18T07:51:26.338Z,99.90
2023-02-18T07:53:52.950Z,99.90
2023-02-18T07:56:19.582Z,99.90
2023-02-18T07:58:46.209Z,99.90
2023-02-18T08:01:14.980Z,99.90
2023-02-18T08:03:41.777Z,99.90
2023-02-18T08:06:08.948Z,99.90
2023-02-18T08:08:37.093Z,99.90
2023-02-18T08:11:18.143Z,99.90
2023-02-18T08:13:47.162Z,99.90
2023-02-18T08:16:14.300Z,99.90
2023-02-18T08:18:41.021Z,99.90
2023-02-18T08:21:07.638Z,99.90
2023-02-18T08:23:34.359Z,99.90
2023-02-18T08:26:01.066Z,99.90
2023-02-18T08:28:27.685Z,99.90
2023-02-18T08:30:54.929Z,99.90
2023-02-18T08:33:22.110Z,99.90
2023-02-18T08:35:49.912Z,99.90
2023-02-18T08:38:16.605Z,99.90
2023-02-18T08:40:43.256Z,99.90
2023-02-18T08:43:10.012Z,99.90
2023-02-18T08:45:38.047Z,99.90
2023-02-18T08:48:17.901Z,99.90
2023-02-18T08:50:47.048Z,99.90
2023-02-18T08:53:13.697Z,99.90
2023-02-18T08:55:40.891Z,99.90
2023-02-18T08:58:07.578Z,99.90
2023-02-18T09:00:34.281Z,99.90
2023-02-18T09:03:00.888Z,99.90
2023-02-18T09:05:27.494Z,99.90
2023-02-18T09:07:54.181Z,99.90
2023-02-18T09:10:21.097Z,99.90
2023-02-18T09:12:47.840Z,99.90
2023-02-18T09:15:14.757Z,99.90
2023-02-18T09:17:41.495Z,99.90
2023-02-18T09:20:08.361Z,99.90
2023-02-18T09:22:35.139Z,99.90
2023-02-18T09:25:01.859Z,99.90
2023-02-18T09:27:28.555Z,99.90
2023-02-18T09:29:55.147Z,99.90
2023-02-18T09:32:33.743Z,99.90
2023-02-18T09:35:01.679Z,99.90
2023-02-18T09:37:28.892Z,99.90
2023-02-18T09:39:55.525Z,99.90
2023-02-18T09:42:24.547Z,99.90
2023-02-18T09:44:52.372Z,99.90
2023-02-18T09:47:25.934Z,99.90
2023-02-18T09:49:55.019Z,99.90
2023-02-18T09:52:23.920Z,99.90
2023-02-18T09:54:50.943Z,99.90
2023-02-18T09:57:26.833Z,99.90
2023-02-18T10:00:00.711Z,99.90
2023-02-18T10:02:28.231Z,99.90
2023-02-18T10:04:55.261Z,99.90
2023-02-18T10:07:27.469Z,99.90
2023-02-18T10:09:56.590Z,99.90
2023-02-18T10:12:24.844Z,99.90
2023-02-18T10:14:52.778Z,99.90
2023-02-18T10:17:20.977Z,99.90
2023-02-18T10:19:48.166Z,99.90
2023-02-18T10:22:15.285Z,99.90
2023-02-18T10:24:48.054Z,99.90
2023-02-18T10:27:36.163Z,99.70
2023-02-18T10:30:23.727Z,99.40
2023-02-18T10:32:54.448Z,99.20
2023-02-18T10:35:27.752Z,98.80
2023-02-18T10:38:05.629Z,98.80
2023-02-18T10:40:32.232Z,98.60
2023-02-18T10:43:15.737Z,98.90
2023-02-18T10:45:57.758Z,99.00
2023-02-18T10:48:39.760Z,98.40
2023-02-18T10:51:14.882Z,98.00
2023-02-18T10:53:43.080Z,98.00
2023-02-18T10:56:29.732Z,97.60
2023-02-18T10:59:01.890Z,97.40
2023-02-18T11:01:29.018Z,97.00
2023-02-18T11:04:05.169Z,97.00
2023-02-18T11:06:33.948Z,97.10
2023-02-18T11:09:00.658Z,96.60
2023-02-18T11:11:30.071Z,96.40
2023-02-18T11:13:57.872Z,96.50
2023-02-18T11:16:35.630Z,96.50
2023-02-18T11:19:04.369Z,96.40
2023-02-18T11:21:33.492Z,96.20
2023-02-18T11:24:07.037Z,95.40
2023-02-18T11:26:36.050Z,94.50
2023-02-18T11:29:06.024Z,93.70
2023-02-18T11:31:38.800Z,93.50
2023-02-18T11:34:05.982Z,93.80
2023-02-18T11:36:35.040Z,92.80
2023-02-18T11:39:04.527Z,92.50
2023-02-18T11:41:36.554Z,92.50
2023-02-18T11:44:04.674Z,92.30
2023-02-18T11:46:31.471Z,91.90
2023-02-18T11:49:11.250Z,91.90
2023-02-18T11:51:39.926Z,91.50
2023-02-18T11:54:22.196Z,91.70
2023-02-18T11:56:57.092Z,91.00
2023-02-18T11:59:24.259Z,91.30
2023-02-18T12:01:52.869Z,91.00
2023-02-18T12:04:21.410Z,90.90
2023-02-18T12:06:55.168Z,90.70
2023-02-18T12:09:29.775Z,90.40
2023-02-18T12:12:00.126Z,89.50
2023-02-18T12:14:27.469Z,89.30
2023-02-18T12:17:17.203Z,90.10
2023-02-18T12:19:53.070Z,90.30
2023-02-18T12:22:26.713Z,90.00
2023-02-18T12:25:05.603Z,90.00
2023-02-18T12:27:47.584Z,90.20
2023-02-18T12:30:26.383Z,89.30
2023-02-18T12:32:56.148Z,86.40
2023-02-18T12:35:33.062Z,86.90
2023-02-18T12:38:09.014Z,87.20
2023-02-18T12:40:45.091Z,88.30
2023-02-18T12:43:21.020Z,89.20
2023-02-18T12:45:53.959Z,89.10
2023-02-18T12:48:38.620Z,89.90
2023-02-18T12:51:24.205Z,89.10
2023-02-18T12:54:11.092Z,89.50
2023-02-18T12:56:40.716Z,89.20
2023-02-18T12:59:07.301Z,88.80
2023-02-18T13:01:43.924Z,88.30
2023-02-18T13:04:36.511Z,88.30
2023-02-18T13:07:21.245Z,88.70
2023-02-18T13:09:53.811Z,89.60
2023-02-18T13:12:37.946Z,89.30
2023-02-18T13:15:17.754Z,88.90
2023-02-18T13:17:44.688Z,88.80
2023-02-18T13:20:18.981Z,88.40
2023-02-18T13:22:46.186Z,89.30
2023-02-18T13:25:13.592Z,90.00
2023-02-18T13:27:45.651Z,90.40
2023-02-18T13:30:32.612Z,90.50
2023-02-18T13:33:14.660Z,90.50
2023-02-18T13:35:46.594Z,90.30
2023-02-18T13:38:16.271Z,90.50
2023-02-18T13:40:43.298Z,90.50
2023-02-18T13:43:30.281Z,90.60
2023-02-18T13:46:10.790Z,90.60
2023-02-18T13:48:57.695Z,90.80
2023-02-18T13:51:29.189Z,91.10
2023-02-18T13:54:01.078Z,91.20
2023-02-18T13:56:28.994Z,91.20
2023-02-18T13:58:59.592Z,91.40
2023-02-18T14:01:38.401Z,91.40
2023-02-18T14:04:24.965Z,91.90
2023-02-18T14:07:10.467Z,91.70
2023-02-18T14:09:38.881Z,91.70
2023-02-18T14:12:24.050Z,91.60
2023-02-18T14:14:51.086Z,91.90
2023-02-18T14:17:20.759Z,91.70
2023-02-18T14:19:54.793Z,91.50
2023-02-18T14:22:26.356Z,91.80
2023-02-18T14:24:56.921Z,91.80
2023-02-18T14:27:23.974Z,91.30
2023-02-18T14:29:52.027Z,91.30
2023-02-18T14:32:19.695Z,91.70
2023-02-18T14:35:04.866Z,91.70
2023-02-18T14:37:50.447Z,91.60
2023-02-18T14:40:43.404Z,91.70
2023-02-18T14:43:16.043Z,92.00
2023-02-18T14:45:45.712Z,92.10
2023-02-18T14:48:18.524Z,92.30
2023-02-18T14:50:50.073Z,92.60
2023-02-18T14:53:21.843Z,92.90
2023-02-18T14:55:49.831Z,93.10
2023-02-18T14:58:16.408Z,93.20
2023-02-18T15:00:43.342Z,93.00
2023-02-18T15:03:14.532Z,93.00
2023-02-18T15:05:41.285Z,92.80
2023-02-18T15:08:15.158Z,93.00
2023-02-18T15:10:41.758Z,93.00
2023-02-18T15:13:13.221Z,93.10
2023-02-18T15:15:41.095Z,93.00
2023-02-18T15:18:14.296Z,92.80
2023-02-18T15:20:40.970Z,93.00
2023-02-18T15:23:11.773Z,93.50
2023-02-18T15:25:39.033Z,93.40
2023-02-18T15:28:05.724Z,93.20
2023-02-18T15:30:32.452Z,93.10
2023-02-18T15:33:00.323Z,93.00
2023-02-18T15:35:29.790Z,92.80
2023-02-18T15:37:57.860Z,92.90
2023-02-18T15:40:25.805Z,92.70
2023-02-18T15:42:54.036Z,92.70
2023-02-18T15:45:25.441Z,92.70
2023-02-18T15:47:54.274Z,92.60
2023-02-18T15:50:24.985Z,92.60
2023-02-18T15:52:53.714Z,92.80
2023-02-18T15:55:40.017Z,93.00
2023-02-18T15:58:21.878Z,93.20
2023-02-18T16:00:50.804Z,93.50
2023-02-18T16:03:20.525Z,93.50
2023-02-18T16:05:47.410Z,93.70
2023-02-18T16:08:24.717Z,93.80
2023-02-18T16:11:02.969Z,93.90
2023-02-18T16:13:31.400Z,94.10
2023-02-18T16:16:00.846Z,94.30
2023-02-18T16:18:29.945Z,94.40
2023-02-18T16:20:58.684Z,94.50
2023-02-18T16:23:27.035Z,94.70
2023-02-18T16:25:53.616Z,94.90
2023-02-18T16:28:24.645Z,95.00
2023-02-18T16:30:51.351Z,95.00
2023-02-18T16:33:17.965Z,95.10
2023-02-18T16:35:49.854Z,95.20
2023-02-18T16:38:21.583Z,95.30
2023-02-18T16:40:48.477Z,95.50
2023-02-18T16:43:16.889Z,95.50
2023-02-18T16:45:45.087Z,95.60
2023-02-18T16:48:16.974Z,95.60
2023-02-18T16:50:43.677Z,95.70
2023-02-18T16:53:11.756Z,95.90
2023-02-18T16:55:38.374Z,95.80
2023-02-18T16:58:04.970Z,95.90
2023-02-18T17:00:31.971Z,96.00
2023-02-18T17:02:59.259Z,96.00
2023-02-18T17:05:30.278Z,96.00
2023-02-18T17:07:59.650Z,96.00
2023-02-18T17:10:26.339Z,96.00
2023-02-18T17:12:52.960Z,95.90
2023-02-18T17:15:30.235Z,95.90
2023-02-18T17:17:59.247Z,95.90
2023-02-18T17:20:31.024Z,95.90
2023-02-18T17:22:58.571Z,95.80
2023-02-18T17:25:30.682Z,96.00
2023-02-18T17:27:57.655Z,95.90
2023-02-18T17:30:24.372Z,95.90
2023-02-18T17:32:51.112Z,95.90
2023-02-18T17:35:19.196Z,96.00
2023-02-18T17:37:45.954Z,96.00
2023-02-18T17:40:20.162Z,96.00
2023-02-18T17:42:47.233Z,96.00
2023-02-18T17:45:17.659Z,96.10
2023-02-18T17:47:44.369Z,96.20
2023-02-18T17:50:11.066Z,96.20
2023-02-18T17:52:37.724Z,96.40
2023-02-18T17:55:21.658Z,96.40
2023-02-18T17:57:48.900Z,96.50
2023-02-18T18:00:17.518Z,96.60
2023-02-18T18:02:44.223Z,96.70
2023-02-18T18:05:21.622Z,96.70
2023-02-18T18:07:49.915Z,96.80
2023-02-18T18:10:17.250Z,97.00
2023-02-18T18:12:44.077Z,97.00
2023-02-18T18:15:16.766Z,97.10
2023-02-18T18:17:43.395Z,97.30
2023-02-18T18:20:10.282Z,97.30
2023-02-18T18:22:36.922Z,97.50
2023-02-18T18:25:10.565Z,97.50
2023-02-18T18:27:37.199Z,97.60
2023-02-18T18:30:04.973Z,97.70
2023-02-18T18:32:31.691Z,97.80
2023-02-18T18:34:58.375Z,97.80
2023-02-18T18:37:25.042Z,97.90
2023-02-18T18:39:51.792Z,97.90
2023-02-18T18:42:18.424Z,98.00
2023-02-18T18:44:45.093Z,98.10
2023-02-18T18:47:12.067Z,98.20
2023-02-18T18:49:39.255Z,98.50
2023-02-18T18:52:06.071Z,98.30
2023-02-18T18:54:32.755Z,98.30
2023-02-18T18:56:59.399Z,98.30
2023-02-18T18:59:26.029Z,98.30
2023-02-18T19:01:53.085Z,98.40
2023-02-18T19:04:20.484Z,98.50
2023-02-18T19:06:47.210Z,98.40
2023-02-18T19:09:13.935Z,98.50
2023-02-18T19:11:40.605Z,98.50
2023-02-18T19:14:08.526Z,98.50
2023-02-18T19:16:36.117Z,98.40
2023-02-18T19:19:02.871Z,98.50
2023-02-18T19:21:29.603Z,98.50
2023-02-18T19:23:56.264Z,98.50
2023-02-18T19:26:23.520Z,98.40
2023-02-18T19:28:50.140Z,98.30
2023-02-18T19:31:16.959Z,98.40
2023-02-18T19:33:46.804Z,98.40
2023-02-18T19:36:14.744Z,98.40
2023-02-18T19:38:41.607Z,98.40
2023-02-18T19:41:10.234Z,98.50
2023-02-18T19:43:37.215Z,98.50
2023-02-18T19:46:11.602Z,98.60
2023-02-18T19:48:38.317Z,98.70
2023-02-18T19:51:05.702Z,98.70
2023-02-18T19:53:32.362Z,98.80
2023-02-18T19:56:02.259Z,98.70
2023-02-18T19:58:29.294Z,98.80
2023-02-18T20:00:56.116Z,98.80
2023-02-18T20:03:22.873Z,98.90
2023-02-18T20:05:49.546Z,99.10
2023-02-18T20:08:16.188Z,99.00
2023-02-18T20:10:42.917Z,99.10
2023-02-18T20:13:12.082Z,99.10
2023-02-18T20:15:40.155Z,99.10
2023-02-18T20:18:07.102Z,99.20
2023-02-18T20:20:33.771Z,99.30
2023-02-18T20:23:00.396Z,99.20
2023-02-18T20:25:28.251Z,99.30
2023-02-18T20:28:01.285Z,99.30
2023-02-18T20:30:28.502Z,99.20
2023-02-18T20:32:55.174Z,99.30
2023-02-18T20:35:21.856Z,99.40
2023-02-18T20:37:48.530Z,99.40
2023-02-18T20:40:15.428Z,99.30
2023-02-18T20:42:42.191Z,99.30
2023-02-18T20:45:09.496Z,99.30
2023-02-18T20:47:36.145Z,99.30
2023-02-18T20:50:04.150Z,99.30
2023-02-18T20:52:32.947Z,99.40
2023-02-18T20:55:00.997Z,99.40
2023-02-18T20:57:28.051Z,99.50
2023-02-18T20:59:55.048Z,99.50
2023-02-18T21:02:21.740Z,99.40
2023-02-18T21:04:48.362Z,99.80
2023-02-18T21:07:15.061Z,99.50
2023-02-18T21:09:41.767Z,99.50
2023-02-18T21:12:09.722Z,99.70
2023-02-18T21:14:36.534Z,99.60
2023-02-18T21:17:03.711Z,99.70
2023-02-18T21:19:30.739Z,99.80
2023-02-18T21:21:57.416Z,99.70
2023-02-18T21:24:24.040Z,99.80
2023-02-18T21:26:50.683Z,99.70
2023-02-18T21:29:17.455Z,99.70
2023-02-18T21:31:44.421Z,99.70
2023-02-18T21:34:11.777Z,99.60
2023-02-18T21:36:38.628Z,99.60
2023-02-18T21:39:06.859Z,99.70
2023-02-18T21:41:34.262Z,99.70
2023-02-18T21:44:01.235Z,99.80
2023-02-18T21:46:29.487Z,99.90
2023-02-18T21:49:02.169Z,99.90
2023-02-18T21:51:53.759Z,99.90
2023-02-18T21:54:22.219Z,99.90
2023-02-18T21:56:49.610Z,99.90
2023-02-18T21:59:16.562Z,99.90
2023-02-18T22:01:43.411Z,99.90
2023-02-18T22:04:10.430Z,99.90
2023-02-18T22:06:37.169Z,99.90
2023-02-18T22:09:04.365Z,99.90
2023-02-18T22:11:31.385Z,99.90
2023-02-18T22:13:58.106Z,99.90
2023-02-18T22:16:26.701Z,99.90
2023-02-18T22:18:54.288Z,99.90
2023-02-18T22:21:21.233Z,99.90
2023-02-18T22:23:47.903Z,99.90
2023-02-18T22:26:15.187Z,99.90
2023-02-18T22:28:44.272Z,99.90
2023-02-18T22:31:12.710Z,99.90
2023-02-18T22:33:41.214Z,99.90
2023-02-18T22:36:08.296Z,99.90
2023-02-18T22:38:35.690Z,99.90
2023-02-18T22:41:06.405Z,99.90
2023-02-18T22:43:33.156Z,99.90
2023-02-18T22:46:04.110Z,99.90
2023-02-18T22:48:32.272Z,99.90
2023-02-18T22:51:05.141Z,99.90
2023-02-18T22:53:31.794Z,99.90
2023-02-18T22:55:59.347Z,99.90
2023-02-18T22:58:25.997Z,99.90
2023-02-18T23:00:52.685Z,99.90
2023-02-18T23:03:19.354Z,99.90
2023-02-18T23:05:45.956Z,99.90
2023-02-18T23:08:12.766Z,99.90
2023-02-18T23:10:39.441Z,99.90
2023-02-18T23:13:07.219Z,99.90
2023-02-18T23:15:33.877Z,99.90
2023-02-18T23:18:00.520Z,99.90
2023-02-18T23:20:45.893Z,99.90
2023-02-18T23:23:12.512Z,99.90
2023-02-18T23:25:39.149Z,99.90
2023-02-18T23:28:05.781Z,99.90
2023-02-18T23:30:32.547Z,99.90
2023-02-18T23:32:59.210Z,99.90
2023-02-18T23:35:25.853Z,99.90
2023-02-18T23:38:04.716Z,99.90
2023-02-18T23:40:31.671Z,99.90
2023-02-18T23:42:58.424Z,99.90
2023-02-18T23:45:25.044Z,99.90
2023-02-18T23:47:51.726Z,99.90
2023-02-18T23:50:18.868Z,99.90
2023-02-18T23:52:47.078Z,99.90
2023-02-18T23:55:13.715Z,99.90
2023-02-18T23:57:40.367Z,99.90
